createdAt,value
2023-04-10T00:00:12.954Z,2.78
2023-04-10T00:00:44.300Z,2.85
2023-04-10T00:01:15.687Z,3.40
2023-04-10T00:01:47.068Z,2.15
2023-04-10T00:02:18.540Z,3.53
2023-04-10T00:02:50.138Z,2.90
2023-04-10T00:03:21.814Z,2.45
2023-04-10T00:03:53.744Z,2.50
2023-04-10T00:04:25.463Z,2.47
2023-04-10T00:04:56.922Z,3.53
2023-04-10T00:05:28.333Z,2.75
2023-04-10T00:05:59.662Z,3.10
2023-04-10T00:06:30.995Z,2.60
2023-04-10T00:07:02.334Z,3.03
2023-04-10T00:07:33.680Z,3.55
2023-04-10T00:08:05.067Z,3.10
2023-04-10T00:08:36.375Z,2.78
2023-04-10T00:09:08.204Z,2.65
2023-04-10T00:09:39.566Z,2.75
2023-04-10T00:10:10.924Z,2.40
2023-04-10T00:10:42.277Z,3.40
2023-04-10T00:11:13.615Z,2.75
2023-04-10T00:11:44.959Z,2.72
2023-04-10T00:12:16.304Z,2.70
2023-04-10T00:12:47.631Z,2.58
2023-04-10T00:13:18.970Z,2.42
2023-04-10T00:13:50.279Z,3.50
2023-04-10T00:14:21.600Z,2.00
2023-04-10T00:14:52.928Z,2.63
2023-04-10T00:15:24.270Z,2.90
2023-04-10T00:15:55.658Z,2.55
2023-04-10T00:16:27.067Z,2.58
2023-04-10T00:16:58.678Z,3.33
2023-04-10T00:17:30.201Z,2.55
2023-04-10T00:18:01.574Z,2.92
2023-04-10T00:18:32.984Z,2.70
2023-04-10T00:19:04.305Z,2.80
2023-04-10T00:19:35.668Z,3.03
2023-04-10T00:20:07.299Z,3.10
2023-04-10T00:20:38.591Z,2.65
2023-04-10T00:21:09.944Z,2.95
2023-04-10T00:21:41.340Z,2.67
2023-04-10T00:22:12.683Z,2.53
2023-04-10T00:22:44.090Z,2.08
2023-04-10T00:23:15.450Z,2.70
2023-04-10T00:23:46.798Z,3.27
2023-04-10T00:24:18.157Z,2.63
2023-04-10T00:24:49.497Z,2.42
2023-04-10T00:25:21.027Z,2.58
2023-04-10T00:25:52.370Z,2.38
2023-04-10T00:26:23.738Z,3.85
2023-04-10T00:26:55.070Z,2.58
2023-04-10T00:27:26.429Z,2.45
2023-04-10T00:27:57.781Z,3.15
2023-04-10T00:28:29.181Z,2.50
2023-04-10T00:29:00.584Z,2.60
2023-04-10T00:29:31.951Z,2.85
2023-04-10T00:30:03.358Z,2.92
2023-04-10T00:30:34.706Z,2.72
2023-04-10T00:31:06.079Z,2.22
2023-04-10T00:31:37.500Z,3.25
2023-04-10T00:32:08.967Z,2.70
2023-04-10T00:32:40.383Z,2.80
2023-04-10T00:33:11.744Z,2.50
2023-04-10T00:33:43.162Z,1.95
2023-04-10T00:34:14.514Z,2.13
2023-04-10T00:34:45.859Z,2.55
2023-04-10T00:35:17.244Z,2.17
2023-04-10T00:35:48.585Z,2.60
2023-04-10T00:36:19.978Z,2.13
2023-04-10T00:36:51.484Z,2.55
2023-04-10T00:37:22.850Z,2.22
2023-04-10T00:37:54.168Z,2.58
2023-04-10T00:38:25.508Z,1.83
2023-04-10T00:38:56.884Z,2.28
2023-04-10T00:39:28.246Z,1.90
2023-04-10T00:40:00.050Z,2.08
2023-04-10T00:40:31.409Z,3.03
2023-04-10T00:41:02.748Z,2.78
2023-04-10T00:41:34.090Z,2.22
2023-04-10T00:42:05.611Z,2.97
2023-04-10T00:42:37.023Z,2.42
2023-04-10T00:43:08.359Z,2.97
2023-04-10T00:43:39.700Z,2.33
2023-04-10T00:44:11.056Z,2.75
2023-04-10T00:44:42.403Z,2.58
2023-04-10T00:45:13.708Z,2.92
2023-04-10T00:45:45.063Z,2.50
2023-04-10T00:46:16.556Z,2.28
2023-04-10T00:46:47.919Z,2.33
2023-04-10T00:47:19.448Z,2.25
2023-04-10T00:47:51.349Z,1.83
2023-04-10T00:48:22.731Z,2.20
2023-04-10T00:48:55.101Z,2.97
2023-04-10T00:49:26.448Z,2.40
2023-04-10T00:49:57.827Z,2.35
2023-04-10T00:50:29.157Z,2.10
2023-04-10T00:51:00.691Z,2.28
2023-04-10T00:51:32.041Z,2.40
2023-04-10T00:52:03.447Z,1.80
2023-04-10T00:52:35.183Z,2.30
2023-04-10T00:53:06.547Z,2.50
2023-04-10T00:53:37.908Z,2.72
2023-04-10T00:54:09.798Z,2.25
2023-04-10T00:54:41.132Z,2.78
2023-04-10T00:55:12.483Z,2.13
2023-04-10T00:55:44.283Z,3.03
2023-04-10T00:56:15.614Z,2.25
2023-04-10T00:56:47.593Z,2.40
2023-04-10T00:57:18.925Z,2.50
2023-04-10T00:57:50.281Z,2.65
2023-04-10T00:58:21.816Z,2.90
2023-04-10T00:58:53.165Z,2.58
2023-04-10T00:59:24.534Z,2.45
2023-04-10T00:59:55.858Z,2.33
2023-04-10T01:00:27.214Z,2.55
2023-04-10T01:00:58.683Z,2.42
2023-04-10T01:01:30.096Z,3.00
2023-04-10T01:02:01.717Z,2.50
2023-04-10T01:02:33.314Z,2.73
2023-04-10T01:03:05.064Z,2.90
2023-04-10T01:03:37.751Z,2.20
2023-04-10T01:04:09.904Z,2.90
2023-04-10T01:04:41.420Z,2.08
2023-04-10T01:05:13.343Z,2.58
2023-04-10T01:05:51.450Z,2.90
2023-04-10T01:06:25.520Z,3.03
2023-04-10T01:07:08.983Z,2.47
2023-04-10T01:07:49.418Z,3.47
2023-04-10T01:08:20.743Z,3.28
2023-04-10T01:09:10.933Z,2.50
2023-04-10T01:09:42.231Z,2.70
2023-04-10T01:10:45.829Z,2.95
2023-04-10T01:11:35.669Z,3.05
2023-04-10T01:12:15.416Z,2.45
2023-04-10T01:13:06.459Z,1.90
2023-04-10T01:13:48.619Z,3.53
2023-04-10T01:14:37.944Z,2.70
2023-04-10T01:15:09.271Z,2.90
2023-04-10T01:16:10.280Z,2.85
2023-04-10T01:17:04.929Z,3.58
2023-04-10T01:17:39.363Z,2.53
2023-04-10T01:18:24.337Z,2.50
2023-04-10T01:18:55.665Z,2.70
2023-04-10T01:19:45.686Z,2.70
2023-04-10T01:20:21.864Z,2.95
2023-04-10T01:20:53.798Z,3.28
2023-04-10T01:21:26.040Z,2.83
2023-04-10T01:21:58.848Z,2.75
2023-04-10T01:22:53.489Z,3.03
2023-04-10T01:23:24.801Z,2.83
2023-04-10T01:24:18.203Z,2.80
2023-04-10T01:25:02.429Z,2.60
2023-04-10T01:25:33.878Z,2.60
2023-04-10T01:26:13.398Z,3.08
2023-04-10T01:26:47.456Z,3.50
2023-04-10T01:27:39.017Z,2.90
2023-04-10T01:28:19.576Z,3.10
2023-04-10T01:28:53.902Z,2.53
2023-04-10T01:29:26.560Z,2.63
2023-04-10T01:30:00.890Z,2.35
2023-04-10T01:30:32.925Z,3.55
2023-04-10T01:31:06.927Z,2.80
2023-04-10T01:31:50.608Z,2.60
2023-04-10T01:32:22.561Z,3.00
2023-04-10T01:32:55.308Z,2.43
2023-04-10T01:33:29.774Z,3.70
2023-04-10T01:34:07.188Z,3.13
2023-04-10T01:35:04.780Z,2.75
2023-04-10T01:35:36.390Z,3.00
2023-04-10T01:36:08.194Z,2.92
2023-04-10T01:36:48.716Z,2.87
2023-04-10T01:37:21.071Z,2.75
2023-04-10T01:37:53.555Z,2.88
2023-04-10T01:38:25.604Z,3.03
2023-04-10T01:38:57.735Z,3.10
2023-04-10T01:39:30.374Z,3.65
2023-04-10T01:40:02.999Z,2.90
2023-04-10T01:40:35.576Z,2.90
2023-04-10T01:41:07.236Z,2.88
2023-04-10T01:41:41.318Z,2.63
2023-04-10T01:42:14.306Z,2.97
2023-04-10T01:42:50.502Z,2.78
2023-04-10T01:43:22.771Z,2.33
2023-04-10T01:43:55.125Z,3.05
2023-04-10T01:44:29.053Z,3.05
2023-04-10T01:45:01.202Z,3.05
2023-04-10T01:45:32.550Z,2.70
2023-04-10T01:46:04.668Z,3.03
2023-04-10T01:46:37.303Z,2.30
2023-04-10T01:47:08.727Z,2.80
2023-04-10T01:47:40.168Z,3.25
2023-04-10T01:48:11.696Z,3.00
2023-04-10T01:48:44.052Z,2.58
2023-04-10T01:49:16.142Z,3.20
2023-04-10T01:49:47.716Z,2.42
2023-04-10T01:50:19.948Z,3.72
2023-04-10T01:50:52.158Z,2.33
2023-04-10T01:51:23.713Z,2.90
2023-04-10T01:51:56.644Z,2.72
2023-04-10T01:52:28.610Z,2.85
2023-04-10T01:53:00.563Z,2.78
2023-04-10T01:53:32.105Z,3.45
2023-04-10T01:54:06.919Z,2.85
2023-04-10T01:54:38.628Z,2.78
2023-04-10T01:55:10.187Z,2.47
2023-04-10T01:55:42.125Z,3.10
2023-04-10T01:56:13.969Z,3.10
2023-04-10T01:56:45.318Z,2.80
2023-04-10T01:57:17.092Z,2.50
2023-04-10T01:57:48.812Z,2.90
2023-04-10T01:58:20.215Z,2.80
2023-04-10T01:58:51.549Z,3.10
2023-04-10T01:59:23.013Z,2.53
2023-04-10T01:59:54.330Z,2.70
2023-04-10T02:00:25.750Z,2.80
2023-04-10T02:00:57.145Z,2.90
2023-04-10T02:01:30.143Z,3.33
2023-04-10T02:02:02.080Z,3.00
2023-04-10T02:02:34.179Z,2.47
2023-04-10T02:03:05.777Z,2.77
2023-04-10T02:03:37.529Z,2.65
2023-04-10T02:04:09.267Z,2.85
2023-04-10T02:04:40.853Z,2.83
2023-04-10T02:05:12.395Z,2.72
2023-04-10T02:06:02.651Z,2.97
2023-04-10T02:06:33.994Z,2.30
2023-04-10T02:07:19.340Z,2.88
2023-04-10T02:07:56.722Z,2.55
2023-04-10T02:08:30.823Z,2.90
2023-04-10T02:09:10.519Z,3.13
2023-04-10T02:09:53.592Z,2.72
2023-04-10T02:10:26.335Z,2.83
2023-04-10T02:11:20.708Z,2.90
2023-04-10T02:11:58.309Z,2.58
2023-04-10T02:12:31.838Z,2.35
2023-04-10T02:13:06.170Z,2.58
2023-04-10T02:13:38.072Z,2.97
2023-04-10T02:14:11.037Z,2.65
2023-04-10T02:14:43.877Z,2.95
2023-04-10T02:15:16.808Z,2.20
2023-04-10T02:15:49.427Z,2.70
2023-04-10T02:16:21.935Z,2.58
2023-04-10T02:16:54.897Z,3.05
2023-04-10T02:17:27.902Z,2.80
2023-04-10T02:18:00.175Z,2.58
2023-04-10T02:18:33.737Z,2.65
2023-04-10T02:19:05.489Z,2.50
2023-04-10T02:19:36.947Z,3.20
2023-04-10T02:20:08.647Z,2.42
2023-04-10T02:20:40.074Z,2.30
2023-04-10T02:21:11.699Z,2.50
2023-04-10T02:21:43.081Z,2.53
2023-04-10T02:22:15.281Z,2.58
2023-04-10T02:22:46.714Z,2.83
2023-04-10T02:23:18.862Z,2.38
2023-04-10T02:23:50.212Z,2.40
2023-04-10T02:24:21.859Z,2.40
2023-04-10T02:24:53.927Z,2.30
2023-04-10T02:25:25.274Z,3.28
2023-04-10T02:25:56.639Z,3.13
2023-04-10T02:26:28.004Z,2.70
2023-04-10T02:26:59.441Z,3.10
2023-04-10T02:27:31.579Z,3.05
2023-04-10T02:28:06.731Z,2.88
2023-04-10T02:28:38.462Z,3.10
2023-04-10T02:29:09.787Z,3.60
2023-04-10T02:29:41.128Z,3.40
2023-04-10T02:30:12.480Z,3.10
2023-04-10T02:30:43.842Z,3.42
2023-04-10T02:31:15.250Z,3.17
2023-04-10T02:31:46.695Z,2.72
2023-04-10T02:32:18.104Z,3.03
2023-04-10T02:32:49.510Z,2.50
2023-04-10T02:33:20.915Z,2.72
2023-04-10T02:33:52.592Z,3.47
2023-04-10T02:34:24.125Z,2.85
2023-04-10T02:34:55.533Z,2.67
2023-04-10T02:35:26.846Z,2.65
2023-04-10T02:35:58.238Z,3.50
2023-04-10T02:36:29.605Z,3.28
2023-04-10T02:37:00.927Z,3.22
2023-04-10T02:37:32.269Z,2.72
2023-04-10T02:38:03.699Z,3.47
2023-04-10T02:38:35.115Z,3.53
2023-04-10T02:39:06.869Z,3.10
2023-04-10T02:39:38.290Z,3.10
2023-04-10T02:40:09.842Z,3.20
2023-04-10T02:40:41.152Z,2.92
2023-04-10T02:41:12.484Z,2.53
2023-04-10T02:41:43.818Z,3.63
2023-04-10T02:42:15.390Z,3.22
2023-04-10T02:42:46.711Z,2.97
2023-04-10T02:43:18.165Z,2.78
2023-04-10T02:43:49.625Z,3.75
2023-04-10T02:44:20.937Z,3.07
2023-04-10T02:44:52.254Z,3.40
2023-04-10T02:45:23.603Z,2.90
2023-04-10T02:45:54.959Z,2.72
2023-04-10T02:46:26.391Z,3.10
2023-04-10T02:46:57.814Z,3.25
2023-04-10T02:47:29.207Z,3.40
2023-04-10T02:48:00.693Z,3.25
2023-04-10T02:48:32.043Z,3.38
2023-04-10T02:49:03.401Z,3.10
2023-04-10T02:49:35.031Z,2.50
2023-04-10T02:50:06.521Z,3.33
2023-04-10T02:50:37.850Z,3.40
2023-04-10T02:51:09.209Z,4.18
2023-04-10T02:51:40.529Z,4.28
2023-04-10T02:52:11.902Z,3.58
2023-04-10T02:52:43.266Z,3.10
2023-04-10T02:53:15.758Z,3.47
2023-04-10T02:53:47.764Z,2.95
2023-04-10T02:54:19.113Z,3.70
2023-04-10T02:54:50.439Z,3.50
2023-04-10T02:55:21.764Z,3.55
2023-04-10T02:55:53.344Z,3.47
2023-04-10T02:56:24.675Z,3.17
2023-04-10T02:56:56.584Z,3.03
2023-04-10T02:57:27.907Z,3.40
2023-04-10T02:57:59.229Z,2.85
2023-04-10T02:58:30.569Z,3.38
2023-04-10T02:59:01.955Z,3.45
2023-04-10T02:59:33.316Z,3.17
2023-04-10T03:00:04.888Z,3.45
2023-04-10T03:00:36.246Z,3.58
2023-04-10T03:01:07.593Z,3.22
2023-04-10T03:01:39.051Z,3.60
2023-04-10T03:02:10.671Z,2.90
2023-04-10T03:02:42.316Z,3.50
2023-04-10T03:03:13.927Z,3.60
2023-04-10T03:03:45.410Z,3.47
2023-04-10T03:04:16.937Z,3.83
2023-04-10T03:04:48.394Z,3.83
2023-04-10T03:05:19.757Z,3.08
2023-04-10T03:05:51.090Z,3.00
2023-04-10T03:06:22.560Z,3.35
2023-04-10T03:06:53.906Z,3.88
2023-04-10T03:07:25.237Z,3.47
2023-04-10T03:07:56.569Z,3.42
2023-04-10T03:08:27.897Z,3.63
2023-04-10T03:08:59.243Z,2.97
2023-04-10T03:09:30.584Z,3.53
2023-04-10T03:10:01.948Z,3.92
2023-04-10T03:10:33.322Z,2.90
2023-04-10T03:11:04.748Z,3.50
2023-04-10T03:11:36.089Z,4.18
2023-04-10T03:12:07.424Z,2.63
2023-04-10T03:12:38.743Z,3.33
2023-04-10T03:13:10.057Z,3.42
2023-04-10T03:13:41.398Z,3.13
2023-04-10T03:14:12.784Z,3.50
2023-04-10T03:14:44.161Z,3.38
2023-04-10T03:15:15.549Z,2.97
2023-04-10T03:15:46.909Z,3.40
2023-04-10T03:16:18.296Z,3.53
2023-04-10T03:16:49.647Z,3.83
2023-04-10T03:17:21.037Z,3.30
2023-04-10T03:17:52.433Z,2.85
2023-04-10T03:18:23.808Z,3.60
2023-04-10T03:18:55.151Z,2.92
2023-04-10T03:19:26.515Z,3.30
2023-04-10T03:19:57.923Z,3.10
2023-04-10T03:20:29.263Z,3.35
2023-04-10T03:21:00.581Z,3.25
2023-04-10T03:21:31.998Z,3.30
2023-04-10T03:22:03.348Z,2.88
2023-04-10T03:22:34.686Z,3.20
2023-04-10T03:23:06.183Z,2.55
2023-04-10T03:23:37.524Z,3.60
2023-04-10T03:24:08.846Z,3.28
2023-04-10T03:24:40.226Z,2.95
2023-04-10T03:25:11.543Z,3.25
2023-04-10T03:25:42.966Z,2.70
2023-04-10T03:26:14.296Z,2.75
2023-04-10T03:26:45.638Z,3.40
2023-04-10T03:27:17.199Z,3.03
2023-04-10T03:27:48.537Z,3.60
2023-04-10T03:28:19.862Z,3.53
2023-04-10T03:28:51.237Z,3.33
2023-04-10T03:29:22.736Z,3.10
2023-04-10T03:29:54.090Z,3.63
2023-04-10T03:30:25.435Z,3.45
2023-04-10T03:30:56.844Z,3.35
2023-04-10T03:31:28.219Z,2.92
2023-04-10T03:31:59.723Z,3.83
2023-04-10T03:32:31.290Z,3.63
2023-04-10T03:33:02.894Z,3.17
2023-04-10T03:33:34.281Z,3.03
2023-04-10T03:34:05.651Z,3.90
2023-04-10T03:34:37.056Z,2.92
2023-04-10T03:35:08.985Z,3.05
2023-04-10T03:35:40.356Z,3.05
2023-04-10T03:36:11.767Z,3.38
2023-04-10T03:36:43.160Z,3.42
2023-04-10T03:37:14.490Z,3.40
2023-04-10T03:37:45.849Z,3.35
2023-04-10T03:38:17.177Z,3.22
2023-04-10T03:38:48.499Z,3.80
2023-04-10T03:39:19.835Z,3.42
2023-04-10T03:39:51.149Z,3.03
2023-04-10T03:40:22.569Z,2.90
2023-04-10T03:40:53.952Z,3.15
2023-04-10T03:41:25.616Z,3.90
2023-04-10T03:41:57.077Z,3.47
2023-04-10T03:42:28.399Z,3.42
2023-04-10T03:43:00.129Z,3.03
2023-04-10T03:43:31.524Z,3.22
2023-04-10T03:44:02.924Z,3.55
2023-04-10T03:44:34.275Z,3.72
2023-04-10T03:45:05.864Z,3.20
2023-04-10T03:45:37.234Z,2.97
2023-04-10T03:46:08.556Z,3.35
2023-04-10T03:46:39.944Z,3.50
2023-04-10T03:47:11.420Z,2.95
2023-04-10T03:47:42.823Z,3.72
2023-04-10T03:48:14.167Z,2.65
2023-04-10T03:48:45.487Z,3.13
2023-04-10T03:49:16.836Z,3.72
2023-04-10T03:49:48.143Z,3.37
2023-04-10T03:50:19.508Z,3.65
2023-04-10T03:50:50.926Z,3.78
2023-04-10T03:51:23.024Z,3.78
2023-04-10T03:51:54.409Z,6.75
2023-04-10T03:52:25.931Z,5.63
2023-04-10T03:52:57.312Z,4.25
2023-04-10T03:53:28.645Z,4.10
2023-04-10T03:54:00.040Z,4.03
2023-04-10T03:54:31.360Z,3.78
2023-04-10T03:55:02.704Z,3.72
2023-04-10T03:55:34.072Z,3.50
2023-04-10T03:56:05.691Z,3.25
2023-04-10T03:56:37.052Z,3.77
2023-04-10T03:57:08.399Z,4.03
2023-04-10T03:57:42.399Z,4.93
2023-04-10T03:58:13.744Z,3.90
2023-04-10T03:58:45.078Z,3.95
2023-04-10T03:59:16.449Z,5.05
2023-04-10T03:59:48.004Z,3.78
2023-04-10T04:00:20.034Z,4.40
2023-04-10T04:00:51.418Z,3.67
2023-04-10T04:01:22.900Z,4.60
2023-04-10T04:01:54.324Z,5.77
2023-04-10T04:02:25.929Z,4.60
2023-04-10T04:02:57.534Z,4.25
2023-04-10T04:03:29.257Z,4.70
2023-04-10T04:04:01.357Z,4.22
2023-04-10T04:04:33.223Z,5.10
2023-04-10T04:05:04.876Z,4.47
2023-04-10T04:05:36.415Z,4.05
2023-04-10T04:06:07.774Z,4.57
2023-04-10T04:06:39.157Z,4.20
2023-04-10T04:07:10.486Z,4.13
2023-04-10T04:07:41.831Z,4.07
2023-04-10T04:08:13.199Z,4.63
2023-04-10T04:08:44.550Z,3.63
2023-04-10T04:09:18.143Z,3.35
2023-04-10T04:09:49.508Z,4.90
2023-04-10T04:10:20.857Z,4.72
2023-04-10T04:10:52.197Z,3.95
2023-04-10T04:11:23.572Z,4.53
2023-04-10T04:11:54.902Z,3.97
2023-04-10T04:12:26.359Z,4.10
2023-04-10T04:12:57.752Z,4.07
2023-04-10T04:13:29.126Z,3.73
2023-04-10T04:14:00.464Z,3.70
2023-04-10T04:14:31.805Z,3.92
2023-04-10T04:15:03.274Z,3.75
2023-04-10T04:15:34.658Z,3.78
2023-04-10T04:16:06.330Z,4.03
2023-04-10T04:16:37.754Z,3.90
2023-04-10T04:17:09.154Z,4.15
2023-04-10T04:17:41.739Z,3.60
2023-04-10T04:18:13.204Z,3.60
2023-04-10T04:18:44.655Z,3.85
2023-04-10T04:19:18.504Z,4.10
2023-04-10T04:19:49.828Z,4.63
2023-04-10T04:20:21.200Z,3.65
2023-04-10T04:20:52.561Z,3.95
2023-04-10T04:21:23.909Z,3.67
2023-04-10T04:21:55.273Z,3.92
2023-04-10T04:22:26.629Z,4.05
2023-04-10T04:22:57.945Z,3.97
2023-04-10T04:23:29.263Z,3.35
2023-04-10T04:24:00.643Z,4.43
2023-04-10T04:24:32.001Z,3.40
2023-04-10T04:25:03.393Z,3.30
2023-04-10T04:25:34.742Z,4.22
2023-04-10T04:26:06.224Z,3.75
2023-04-10T04:26:37.553Z,3.58
2023-04-10T04:27:08.891Z,3.70
2023-04-10T04:27:40.235Z,3.40
2023-04-10T04:28:11.596Z,3.58
2023-04-10T04:28:42.926Z,3.65
2023-04-10T04:29:14.257Z,3.40
2023-04-10T04:29:45.587Z,4.03
2023-04-10T04:30:16.903Z,2.90
2023-04-10T04:30:48.255Z,3.50
2023-04-10T04:31:19.622Z,4.07
2023-04-10T04:31:51.031Z,3.42
2023-04-10T04:32:22.519Z,3.10
2023-04-10T04:32:53.998Z,2.90
2023-04-10T04:33:25.403Z,3.00
2023-04-10T04:33:56.723Z,2.85
2023-04-10T04:34:28.057Z,2.67
2023-04-10T04:34:59.394Z,3.80
2023-04-10T04:35:30.715Z,3.10
2023-04-10T04:36:02.183Z,2.85
2023-04-10T04:36:33.599Z,3.25
2023-04-10T04:37:04.926Z,3.30
2023-04-10T04:37:36.247Z,2.80
2023-04-10T04:38:07.595Z,3.60
2023-04-10T04:38:38.946Z,2.75
2023-04-10T04:39:10.298Z,2.95
2023-04-10T04:39:41.633Z,3.05
2023-04-10T04:40:12.996Z,2.78
2023-04-10T04:40:44.349Z,2.58
2023-04-10T04:41:15.702Z,2.97
2023-04-10T04:41:47.039Z,2.70
2023-04-10T04:42:18.370Z,3.47
2023-04-10T04:42:49.673Z,2.47
2023-04-10T04:43:21.029Z,2.53
2023-04-10T04:43:52.516Z,2.92
2023-04-10T04:44:24.034Z,3.30
2023-04-10T04:44:55.371Z,3.40
2023-04-10T04:45:26.744Z,2.83
2023-04-10T04:45:58.189Z,2.92
2023-04-10T04:46:29.648Z,2.50
2023-04-10T04:47:01.131Z,2.33
2023-04-10T04:47:32.504Z,3.33
2023-04-10T04:48:03.935Z,2.78
2023-04-10T04:48:35.445Z,2.83
2023-04-10T04:49:06.785Z,3.00
2023-04-10T04:49:38.167Z,3.23
2023-04-10T04:50:09.767Z,3.00
2023-04-10T04:50:41.118Z,3.25
2023-04-10T04:51:12.465Z,2.72
2023-04-10T04:51:43.781Z,2.88
2023-04-10T04:52:15.120Z,3.22
2023-04-10T04:52:46.464Z,2.87
2023-04-10T04:53:17.807Z,2.78
2023-04-10T04:53:49.607Z,3.55
2023-04-10T04:54:20.942Z,3.05
2023-04-10T04:54:52.280Z,3.00
2023-04-10T04:55:23.636Z,2.72
2023-04-10T04:55:55.035Z,2.70
2023-04-10T04:56:26.519Z,2.95
2023-04-10T04:56:57.856Z,2.90
2023-04-10T04:57:29.197Z,3.17
2023-04-10T04:58:00.641Z,2.67
2023-04-10T04:58:31.980Z,2.53
2023-04-10T04:59:03.339Z,3.05
2023-04-10T04:59:34.702Z,3.45
2023-04-10T05:00:06.420Z,2.35
2023-04-10T05:00:37.775Z,2.50
2023-04-10T05:01:09.278Z,2.65
2023-04-10T05:01:40.879Z,2.80
2023-04-10T05:02:12.401Z,2.92
2023-04-10T05:02:43.939Z,2.95
2023-04-10T05:03:15.523Z,2.65
2023-04-10T05:03:47.104Z,2.38
2023-04-10T05:04:18.683Z,2.50
2023-04-10T05:04:50.042Z,3.65
2023-04-10T05:05:21.395Z,3.13
2023-04-10T05:05:52.731Z,3.08
2023-04-10T05:06:24.119Z,2.70
2023-04-10T05:06:55.450Z,2.15
2023-04-10T05:07:26.798Z,2.72
2023-04-10T05:07:58.127Z,2.70
2023-04-10T05:08:29.458Z,2.58
2023-04-10T05:09:00.820Z,2.78
2023-04-10T05:09:32.185Z,2.80
2023-04-10T05:10:03.614Z,3.03
2023-04-10T05:10:34.975Z,3.35
2023-04-10T05:11:06.485Z,3.42
2023-04-10T05:11:37.813Z,3.50
2023-04-10T05:12:09.204Z,3.20
2023-04-10T05:12:40.649Z,2.92
2023-04-10T05:13:12.371Z,2.55
2023-04-10T05:13:43.764Z,2.45
2023-04-10T05:14:15.150Z,3.65
2023-04-10T05:14:46.556Z,3.13
2023-04-10T05:15:17.998Z,2.63
2023-04-10T05:15:49.417Z,2.92
2023-04-10T05:16:20.843Z,2.30
2023-04-10T05:16:52.257Z,2.78
2023-04-10T05:17:23.642Z,3.08
2023-04-10T05:17:55.041Z,3.00
2023-04-10T05:18:26.479Z,2.83
2023-04-10T05:18:57.997Z,2.88
2023-04-10T05:19:29.606Z,3.00
2023-04-10T05:20:00.971Z,2.83
2023-04-10T05:20:34.392Z,2.25
2023-04-10T05:21:05.904Z,2.58
2023-04-10T05:21:37.270Z,2.57
2023-04-10T05:22:08.637Z,2.83
2023-04-10T05:22:39.990Z,3.17
2023-04-10T05:23:11.315Z,3.10
2023-04-10T05:23:42.630Z,2.85
2023-04-10T05:24:14.080Z,2.50
2023-04-10T05:24:45.429Z,2.35
2023-04-10T05:25:16.841Z,3.13
2023-04-10T05:25:48.215Z,2.63
2023-04-10T05:26:19.555Z,2.20
2023-04-10T05:26:50.907Z,2.17
2023-04-10T05:27:22.264Z,3.30
2023-04-10T05:27:53.578Z,1.73
2023-04-10T05:28:24.918Z,2.22
2023-04-10T05:28:56.530Z,1.17
2023-04-10T05:29:28.046Z,1.70
2023-04-10T05:29:59.431Z,3.03
2023-04-10T05:30:30.825Z,2.35
2023-04-10T05:31:02.222Z,1.75
2023-04-10T05:31:33.833Z,1.98
2023-04-10T05:32:05.363Z,2.28
2023-04-10T05:32:36.741Z,2.10
2023-04-10T05:33:08.103Z,1.95
2023-04-10T05:33:39.633Z,1.63
2023-04-10T05:34:11.007Z,1.98
2023-04-10T05:34:42.323Z,1.98
2023-04-10T05:35:13.731Z,1.75
2023-04-10T05:35:45.992Z,1.80
2023-04-10T05:36:17.447Z,2.08
2023-04-10T05:36:48.787Z,2.17
2023-04-10T05:37:20.150Z,1.75
2023-04-10T05:37:51.495Z,2.42
2023-04-10T05:38:22.833Z,2.88
2023-04-10T05:38:54.406Z,1.95
2023-04-10T05:39:25.911Z,3.90
2023-04-10T05:39:57.242Z,4.57
2023-04-10T05:40:29.149Z,3.55
2023-04-10T05:41:00.502Z,4.03
2023-04-10T05:41:31.859Z,3.35
2023-04-10T05:42:03.232Z,3.63
2023-04-10T05:42:34.568Z,4.15
2023-04-10T05:43:05.876Z,4.53
2023-04-10T05:43:37.259Z,4.38
2023-04-10T05:44:08.581Z,4.75
2023-04-10T05:44:39.999Z,4.82
2023-04-10T05:45:11.343Z,5.68
2023-04-10T05:45:45.581Z,5.57
2023-04-10T05:46:16.994Z,4.35
2023-04-10T05:46:48.453Z,5.25
2023-04-10T05:47:19.873Z,5.18
2023-04-10T05:47:51.241Z,5.50
2023-04-10T05:48:22.650Z,5.47
2023-04-10T05:48:54.140Z,5.55
2023-04-10T05:49:25.674Z,4.68
2023-04-10T05:49:57.012Z,4.55
2023-04-10T05:50:30.363Z,5.03
2023-04-10T05:51:01.908Z,4.43
2023-04-10T05:51:33.289Z,4.57
2023-04-10T05:52:04.654Z,4.80
2023-04-10T05:52:36.107Z,5.07
2023-04-10T05:53:10.818Z,4.40
2023-04-10T05:53:42.159Z,5.32
2023-04-10T05:54:13.506Z,4.20
2023-04-10T05:54:44.868Z,4.65
2023-04-10T05:55:16.264Z,4.55
2023-04-10T05:55:50.724Z,4.80
2023-04-10T05:56:22.056Z,4.22
2023-04-10T05:56:55.265Z,4.57
2023-04-10T05:57:26.592Z,5.53
2023-04-10T05:57:58.048Z,5.15
2023-04-10T05:58:29.510Z,4.88
2023-04-10T05:59:00.857Z,5.00
2023-04-10T05:59:32.190Z,5.10
2023-04-10T06:00:03.817Z,5.05
2023-04-10T06:00:35.133Z,5.40
2023-04-10T06:01:06.701Z,4.93
2023-04-10T06:01:38.994Z,4.85
2023-04-10T06:02:10.513Z,4.32
2023-04-10T06:02:42.331Z,4.68
2023-04-10T06:03:13.941Z,5.38
2023-04-10T06:03:45.494Z,5.70
2023-04-10T06:04:17.230Z,4.63
2023-04-10T06:04:48.780Z,4.80
2023-04-10T06:05:20.448Z,5.72
2023-04-10T06:05:51.895Z,4.55
2023-04-10T06:06:23.221Z,4.38
2023-04-10T06:06:54.548Z,3.58
2023-04-10T06:07:25.922Z,4.43
2023-04-10T06:07:58.359Z,4.63
2023-04-10T06:08:29.952Z,4.10
2023-04-10T06:09:01.275Z,3.70
2023-04-10T06:09:32.637Z,4.50
2023-04-10T06:10:04.166Z,4.45
2023-04-10T06:10:35.491Z,4.53
2023-04-10T06:11:06.874Z,4.35
2023-04-10T06:11:38.244Z,4.05
2023-04-10T06:12:09.574Z,4.57
2023-04-10T06:12:40.954Z,4.97
2023-04-10T06:13:12.290Z,4.13
2023-04-10T06:13:43.631Z,4.85
2023-04-10T06:14:14.968Z,3.92
2023-04-10T06:14:46.662Z,3.70
2023-04-10T06:15:18.095Z,4.38
2023-04-10T06:15:49.503Z,4.15
2023-04-10T06:16:20.954Z,3.95
2023-04-10T06:16:52.405Z,3.83
2023-04-10T06:17:23.757Z,4.05
2023-04-10T06:17:55.191Z,4.07
2023-04-10T06:18:26.561Z,4.32
2023-04-10T06:18:58.002Z,3.88
2023-04-10T06:19:29.339Z,3.78
2023-04-10T06:20:02.652Z,4.20
2023-04-10T06:20:33.963Z,4.20
2023-04-10T06:21:05.395Z,3.53
2023-04-10T06:21:36.726Z,4.03
2023-04-10T06:22:08.060Z,3.70
2023-04-10T06:22:39.384Z,3.92
2023-04-10T06:23:10.755Z,3.55
2023-04-10T06:23:42.098Z,4.60
2023-04-10T06:24:13.492Z,4.25
2023-04-10T06:24:44.818Z,4.65
2023-04-10T06:25:16.205Z,3.92
2023-04-10T06:25:47.712Z,3.95
2023-04-10T06:26:19.109Z,3.80
2023-04-10T06:26:50.444Z,3.10
2023-04-10T06:27:21.767Z,3.13
2023-04-10T06:27:53.097Z,3.60
2023-04-10T06:28:24.427Z,3.88
2023-04-10T06:28:56.013Z,3.50
2023-04-10T06:29:27.652Z,3.95
2023-04-10T06:29:58.988Z,4.20
2023-04-10T06:30:30.310Z,3.47
2023-04-10T06:31:01.711Z,3.70
2023-04-10T06:31:33.612Z,3.58
2023-04-10T06:32:04.960Z,3.08
2023-04-10T06:32:36.358Z,4.40
2023-04-10T06:33:07.701Z,3.33
2023-04-10T06:33:39.069Z,3.70
2023-04-10T06:34:10.414Z,3.38
2023-04-10T06:34:41.793Z,3.05
2023-04-10T06:35:13.142Z,3.78
2023-04-10T06:35:44.526Z,3.85
2023-04-10T06:36:15.973Z,3.80
2023-04-10T06:36:47.348Z,3.42
2023-04-10T06:37:18.711Z,3.72
2023-04-10T06:37:50.047Z,3.55
2023-04-10T06:38:21.428Z,3.20
2023-04-10T06:38:53.006Z,3.60
2023-04-10T06:39:24.494Z,3.45
2023-04-10T06:40:03.736Z,2.97
2023-04-10T06:40:35.195Z,2.60
2023-04-10T06:41:06.626Z,2.58
2023-04-10T06:41:37.953Z,3.40
2023-04-10T06:42:09.340Z,3.03
2023-04-10T06:42:40.723Z,2.65
2023-04-10T06:43:12.066Z,2.63
2023-04-10T06:43:43.434Z,3.28
2023-04-10T06:44:14.814Z,2.97
2023-04-10T06:44:46.150Z,2.58
2023-04-10T06:45:17.555Z,3.25
2023-04-10T06:45:48.980Z,2.90
2023-04-10T06:46:20.537Z,2.20
2023-04-10T06:46:51.991Z,2.92
2023-04-10T06:47:23.376Z,2.95
2023-04-10T06:47:54.820Z,2.40
2023-04-10T06:48:26.178Z,2.40
2023-04-10T06:48:57.505Z,2.25
2023-04-10T06:49:28.882Z,2.28
2023-04-10T06:50:00.301Z,2.35
2023-04-10T06:50:33.373Z,2.55
2023-04-10T06:51:04.945Z,2.45
2023-04-10T06:51:36.283Z,3.25
2023-04-10T06:52:07.612Z,2.50
2023-04-10T06:52:38.967Z,2.17
2023-04-10T06:53:10.307Z,2.85
2023-04-10T06:53:41.633Z,3.75
2023-04-10T06:54:12.980Z,2.63
2023-04-10T06:54:44.345Z,2.70
2023-04-10T06:55:15.848Z,3.20
2023-04-10T06:55:47.190Z,2.80
2023-04-10T06:56:18.502Z,3.00
2023-04-10T06:56:49.821Z,2.70
2023-04-10T06:57:21.241Z,2.45
2023-04-10T06:57:52.746Z,3.70
2023-04-10T06:58:24.092Z,3.00
2023-04-10T06:58:55.573Z,2.75
2023-04-10T06:59:26.998Z,3.15
2023-04-10T06:59:58.406Z,3.70
2023-04-10T07:00:30.053Z,3.28
2023-04-10T07:01:01.525Z,2.72
2023-04-10T07:01:32.952Z,3.15
2023-04-10T07:02:04.719Z,3.22
2023-04-10T07:02:36.249Z,3.80
2023-04-10T07:03:07.658Z,3.70
2023-04-10T07:03:39.029Z,3.05
2023-04-10T07:04:10.479Z,3.20
2023-04-10T07:04:42.353Z,3.20
2023-04-10T07:05:13.871Z,3.75
2023-04-10T07:05:45.215Z,3.33
2023-04-10T07:06:16.539Z,3.85
2023-04-10T07:06:48.128Z,3.80
2023-04-10T07:07:19.616Z,2.90
2023-04-10T07:07:50.990Z,3.22
2023-04-10T07:08:22.317Z,3.20